sensor_id;sensor_type;location;lat;lon;timestamp;pressure;altitude;pressure_sealevel;temperature;humidity
40954;BME280;26686;50.130;8.710;2023-02-20T00:00:47;101226.44;;;9.99;66.96
40954;BME280;26686;50.130;8.710;2023-02-20T00:05:49;101219.91;;;10.04;67.29
40954;BME280;26686;50.130;8.710;2023-02-20T00:10:50;101218.75;;;9.94;67.16
40954;BME280;26686;50.130;8.710;2023-02-20T00:15:51;101193.97;;;9.79;67.97
40954;BME280;26686;50.130;8.710;2023-02-20T00:20:53;101201.38;;;9.88;68.18
40954;BME280;26686;50.130;8.710;2023-02-20T00:25:54;101190.34;;;9.80;67.97
40954;BME280;26686;50.130;8.710;2023-02-20T00:30:55;101197.22;;;9.70;68.84
40954;BME280;26686;50.130;8.710;2023-02-20T00:35:57;101199.28;;;9.79;69.18
40954;BME280;26686;50.130;8.710;2023-02-20T00:40:58;101193.69;;;9.69;69.59
40954;BME280;26686;50.130;8.710;2023-02-20T00:46:00;101184.19;;;9.51;70.03
40954;BME280;26686;50.130;8.710;2023-02-20T00:51:01;101202.84;;;9.35;70.96
40954;BME280;26686;50.130;8.710;2023-02-20T00:56:02;101192.50;;;9.30;70.72
40954;BME280;26686;50.130;8.710;2023-02-20T01:01:04;101194.09;;;9.18;70.54
40954;BME280;26686;50.130;8.710;2023-02-20T01:06:05;101190.22;;;9.10;71.66
40954;BME280;26686;50.130;8.710;2023-02-20T01:11:07;101151.84;;;8.99;71.25
40954;BME280;26686;50.130;8.710;2023-02-20T01:16:09;101174.56;;;9.19;71.56
40954;BME280;26686;50.130;8.710;2023-02-20T01:21:10;101188.25;;;9.28;71.46
40954;BME280;26686;50.130;8.710;2023-02-20T01:26:12;101174.31;;;9.08;71.36
40954;BME280;26686;50.130;8.710;2023-02-20T01:31:14;101195.63;;;9.23;71.11
40954;BME280;26686;50.130;8.710;2023-02-20T01:36:15;101178.16;;;9.18;70.66
40954;BME280;26686;50.130;8.710;2023-02-20T01:41:17;101181.09;;;9.14;70.33
40954;BME280;26686;50.130;8.710;2023-02-20T01:51:32;101175.69;;;9.15;69.95
40954;BME280;26686;50.130;8.710;2023-02-20T01:56:35;101155.72;;;9.08;70.27
40954;BME280;26686;50.130;8.710;2023-02-20T02:01:37;101145.66;;;8.99;70.21
40954;BME280;26686;50.130;8.710;2023-02-20T02:06:40;101149.09;;;9.01;70.53
40954;BME280;26686;50.130;8.710;2023-02-20T02:11:44;101130.75;;;8.82;72.21
40954;BME280;26686;50.130;8.710;2023-02-20T02:17:10;101132.19;;;8.88;72.96
40954;BME280;26686;50.130;8.710;2023-02-20T02:27:42;101125.13;;;9.02;70.49
40954;BME280;26686;50.130;8.710;2023-02-20T02:32:59;101135.41;;;8.93;70.66
40954;BME280;26686;50.130;8.710;2023-02-20T02:38:32;101143.56;;;8.90;69.66
40954;BME280;26686;50.130;8.710;2023-02-20T02:54:13;101122.88;;;8.80;70.01
40954;BME280;26686;50.130;8.710;2023-02-20T02:59:33;101110.88;;;8.59;70.39
40954;BME280;26686;50.130;8.710;2023-02-20T03:04:35;101113.47;;;8.44;71.44
40954;BME280;26686;50.130;8.710;2023-02-20T03:09:44;101105.06;;;8.36;71.92
40954;BME280;26686;50.130;8.710;2023-02-20T03:15:05;101104.47;;;8.31;72.02
40954;BME280;26686;50.130;8.710;2023-02-20T03:20:26;101121.75;;;8.54;71.88
40954;BME280;26686;50.130;8.710;2023-02-20T03:25:50;101103.84;;;8.42;71.34
40954;BME280;26686;50.130;8.710;2023-02-20T03:30:56;101121.66;;;8.40;71.93
40954;BME280;26686;50.130;8.710;2023-02-20T03:36:03;101128.53;;;8.44;71.81
40954;BME280;26686;50.130;8.710;2023-02-20T03:41:26;101141.00;;;8.42;71.87
40954;BME280;26686;50.130;8.710;2023-02-20T03:46:48;101135.09;;;8.37;72.28
40954;BME280;26686;50.130;8.710;2023-02-20T03:51:52;101129.72;;;8.38;71.93
40954;BME280;26686;50.130;8.710;2023-02-20T03:57:14;101143.41;;;8.30;71.82
40954;BME280;26686;50.130;8.710;2023-02-20T04:02:29;101146.78;;;8.18;72.07
40954;BME280;26686;50.130;8.710;2023-02-20T04:07:40;101134.88;;;8.09;71.97
40954;BME280;26686;50.130;8.710;2023-02-20T04:12:44;101135.38;;;8.16;72.38
40954;BME280;26686;50.130;8.710;2023-02-20T04:17:51;101107.00;;;8.02;72.42
40954;BME280;26686;50.130;8.710;2023-02-20T04:23:00;101111.28;;;8.05;71.88
40954;BME280;26686;50.130;8.710;2023-02-20T04:28:04;101138.47;;;8.08;71.97
40954;BME280;26686;50.130;8.710;2023-02-20T04:33:06;101129.53;;;7.61;72.70
40954;BME280;26686;50.130;8.710;2023-02-20T04:38:08;101139.44;;;7.58;73.40
40954;BME280;26686;50.130;8.710;2023-02-20T04:43:10;101134.13;;;7.58;73.84
40954;BME280;26686;50.130;8.710;2023-02-20T04:48:12;101130.59;;;7.41;74.17
40954;BME280;26686;50.130;8.710;2023-02-20T04:53:13;101126.94;;;7.44;74.50
40954;BME280;26686;50.130;8.710;2023-02-20T04:58:15;101122.97;;;7.35;74.77
40954;BME280;26686;50.130;8.710;2023-02-20T05:03:16;101127.84;;;7.27;75.53
40954;BME280;26686;50.130;8.710;2023-02-20T05:08:17;101122.22;;;7.16;76.63
40954;BME280;26686;50.130;8.710;2023-02-20T05:13:19;101129.94;;;7.20;77.36
40954;BME280;26686;50.130;8.710;2023-02-20T05:18:27;101126.84;;;7.12;78.51
40954;BME280;26686;50.130;8.710;2023-02-20T05:23:29;101117.66;;;7.02;79.91
40954;BME280;26686;50.130;8.710;2023-02-20T05:28:30;101118.44;;;7.04;80.48
40954;BME280;26686;50.130;8.710;2023-02-20T05:33:31;101108.88;;;7.01;80.81
40954;BME280;26686;50.130;8.710;2023-02-20T05:38:33;101119.47;;;7.01;81.78
40954;BME280;26686;50.130;8.710;2023-02-20T05:43:35;101109.03;;;6.98;81.80
40954;BME280;26686;50.130;8.710;2023-02-20T05:48:36;101129.72;;;7.07;81.72
40954;BME280;26686;50.130;8.710;2023-02-20T05:53:37;101128.56;;;6.96;82.17
40954;BME280;26686;50.130;8.710;2023-02-20T05:58:41;101126.31;;;6.88;82.86
40954;BME280;26686;50.130;8.710;2023-02-20T06:03:43;101113.66;;;6.77;84.18
40954;BME280;26686;50.130;8.710;2023-02-20T06:08:44;101100.00;;;6.67;84.22
40954;BME280;26686;50.130;8.710;2023-02-20T06:13:46;101101.09;;;6.81;84.01
40954;BME280;26686;50.130;8.710;2023-02-20T06:18:47;101096.28;;;6.71;84.77
40954;BME280;26686;50.130;8.710;2023-02-20T06:23:50;101075.41;;;6.48;85.63
40954;BME280;26686;50.130;8.710;2023-02-20T06:28:53;101058.53;;;6.33;86.13
40954;BME280;26686;50.130;8.710;2023-02-20T06:33:57;101078.38;;;6.42;86.49
40954;BME280;26686;50.130;8.710;2023-02-20T06:38:58;101070.25;;;6.27;87.25
40954;BME280;26686;50.130;8.710;2023-02-20T06:44:00;101077.13;;;6.31;87.33
40954;BME280;26686;50.130;8.710;2023-02-20T06:49:01;101097.34;;;6.50;87.13
40954;BME280;26686;50.130;8.710;2023-02-20T06:54:03;101102.47;;;6.53;87.05
40954;BME280;26686;50.130;8.710;2023-02-20T06:59:06;101106.84;;;6.54;86.64
40954;BME280;26686;50.130;8.710;2023-02-20T07:04:23;101109.03;;;6.63;86.29
40954;BME280;26686;50.130;8.710;2023-02-20T07:09:28;101102.78;;;6.47;86.92
40954;BME280;26686;50.130;8.710;2023-02-20T07:14:29;101092.66;;;6.37;87.25
40954;BME280;26686;50.130;8.710;2023-02-20T07:19:30;101087.94;;;6.44;86.81
40954;BME280;26686;50.130;8.710;2023-02-20T07:24:32;101089.34;;;6.51;88.31
40954;BME280;26686;50.130;8.710;2023-02-20T07:29:36;101103.25;;;6.90;86.30
40954;BME280;26686;50.130;8.710;2023-02-20T07:34:37;101100.78;;;6.87;84.56
40954;BME280;26686;50.130;8.710;2023-02-20T07:39:39;101095.63;;;6.66;85.21
40954;BME280;26686;50.130;8.710;2023-02-20T07:44:42;101100.16;;;6.82;84.69
40954;BME280;26686;50.130;8.710;2023-02-20T07:49:44;101087.84;;;6.98;84.00
40954;BME280;26686;50.130;8.710;2023-02-20T07:54:46;101070.84;;;7.02;83.20
40954;BME280;26686;50.130;8.710;2023-02-20T07:59:47;101079.50;;;7.39;82.40
40954;BME280;26686;50.130;8.710;2023-02-20T08:04:48;101071.66;;;7.70;80.31
40954;BME280;26686;50.130;8.710;2023-02-20T08:09:50;101067.31;;;7.69;79.94
40954;BME280;26686;50.130;8.710;2023-02-20T08:14:51;101072.25;;;7.91;79.31
40954;BME280;26686;50.130;8.710;2023-02-20T08:19:53;101073.88;;;8.09;79.03
40954;BME280;26686;50.130;8.710;2023-02-20T08:24:54;101073.94;;;8.24;77.97
40954;BME280;26686;50.130;8.710;2023-02-20T08:29:56;101052.53;;;8.27;77.83
40954;BME280;26686;50.130;8.710;2023-02-20T08:34:57;101054.25;;;8.44;77.15
40954;BME280;26686;50.130;8.710;2023-02-20T08:39:59;101047.72;;;8.49;77.78
40954;BME280;26686;50.130;8.710;2023-02-20T08:45:04;101053.75;;;8.82;75.80
40954;BME280;26686;50.130;8.710;2023-02-20T08:50:06;101053.38;;;8.88;75.70
40954;BME280;26686;50.130;8.710;2023-02-20T08:55:07;101054.06;;;8.92;75.42
40954;BME280;26686;50.130;8.710;2023-02-20T09:00:09;101049.88;;;9.02;75.09
40954;BME280;26686;50.130;8.710;2023-02-20T09:05:12;101040.75;;;9.49;73.32
40954;BME280;26686;50.130;8.710;2023-02-20T09:10:17;101036.03;;;10.09;71.06
40954;BME280;26686;50.130;8.710;2023-02-20T09:15:20;101036.94;;;10.63;69.71
40954;BME280;26686;50.130;8.710;2023-02-20T09:20:22;101028.63;;;10.80;69.33
40954;BME280;26686;50.130;8.710;2023-02-20T09:25:23;101044.41;;;11.22;66.51
40954;BME280;26686;50.130;8.710;2023-02-20T09:30:25;101040.31;;;11.42;65.83
40954;BME280;26686;50.130;8.710;2023-02-20T09:35:29;101046.97;;;11.60;65.27
40954;BME280;26686;50.130;8.710;2023-02-20T09:40:30;101049.00;;;11.70;64.33
40954;BME280;26686;50.130;8.710;2023-02-20T09:45:35;101051.44;;;11.73;64.83
40954;BME280;26686;50.130;8.710;2023-02-20T09:55:46;101018.50;;;12.22;63.06
40954;BME280;26686;50.130;8.710;2023-02-20T10:00:49;101029.78;;;12.72;62.09
40954;BME280;26686;50.130;8.710;2023-02-20T10:05:52;101006.16;;;13.36;58.30
40954;BME280;26686;50.130;8.710;2023-02-20T10:11:00;101025.06;;;15.56;53.51
40954;BME280;26686;50.130;8.710;2023-02-20T10:32:17;100996.00;;;18.26;44.09
40954;BME280;26686;50.130;8.710;2023-02-20T10:37:24;100999.31;;;18.38;43.54
40954;BME280;26686;50.130;8.710;2023-02-20T10:48:01;100983.03;;;20.02;39.60
40954;BME280;26686;50.130;8.710;2023-02-20T10:59:19;100969.91;;;24.99;30.63
40954;BME280;26686;50.130;8.710;2023-02-20T11:04:00;100962.31;;;26.45;28.79
40954;BME280;26686;50.130;8.710;2023-02-20T11:09:03;100943.03;;;26.13;27.98
40954;BME280;26686;50.130;8.710;2023-02-20T11:19:19;100918.88;;;27.93;26.17
40954;BME280;26686;50.130;8.710;2023-02-20T11:24:32;100899.06;;;27.97;24.97
40954;BME280;26686;50.130;8.710;2023-02-20T11:29:38;100892.06;;;27.76;25.57
40954;BME280;26686;50.130;8.710;2023-02-20T11:34:40;100890.41;;;28.44;24.46
40954;BME280;26686;50.130;8.710;2023-02-20T11:39:46;100891.59;;;28.30;24.79
40954;BME280;26686;50.130;8.710;2023-02-20T11:45:12;100876.47;;;27.06;25.46
40954;BME280;26686;50.130;8.710;2023-02-20T11:50:18;100867.31;;;28.15;24.20
40954;BME280;26686;50.130;8.710;2023-02-20T11:55:23;100862.75;;;30.04;22.03
40954;BME280;26686;50.130;8.710;2023-02-20T12:00:43;100830.81;;;30.62;20.29
40954;BME280;26686;50.130;8.710;2023-02-20T12:05:46;100850.88;;;31.32;20.52
40954;BME280;26686;50.130;8.710;2023-02-20T12:10:52;100845.53;;;32.45;18.57
40954;BME280;26686;50.130;8.710;2023-02-20T12:16:17;100827.34;;;33.42;18.00
40954;BME280;26686;50.130;8.710;2023-02-20T12:27:27;100810.28;;;33.83;17.53
40954;BME280;26686;50.130;8.710;2023-02-20T12:32:47;100798.44;;;33.88;17.13
40954;BME280;26686;50.130;8.710;2023-02-20T12:38:17;100803.09;;;35.19;16.82
40954;BME280;26686;50.130;8.710;2023-02-20T12:44:05;100789.41;;;34.56;16.57
40954;BME280;26686;50.130;8.710;2023-02-20T12:54:58;100778.03;;;33.51;17.24
40954;BME280;26686;50.130;8.710;2023-02-20T13:00:14;100772.94;;;34.92;16.18
40954;BME280;26686;50.130;8.710;2023-02-20T13:05:24;100750.25;;;34.79;15.80
40954;BME280;26686;50.130;8.710;2023-02-20T13:10:32;100733.88;;;34.67;14.96
40954;BME280;26686;50.130;8.710;2023-02-20T13:15:55;100735.25;;;33.54;16.29
40954;BME280;26686;50.130;8.710;2023-02-20T13:21:04;100704.28;;;34.47;15.00
40954;BME280;26686;50.130;8.710;2023-02-20T13:47:00;100644.72;;;33.98;15.71
40954;BME280;26686;50.130;8.710;2023-02-20T13:57:31;100625.28;;;34.87;15.06
40954;BME280;26686;50.130;8.710;2023-02-20T14:02:39;100632.41;;;33.21;15.84
40954;BME280;26686;50.130;8.710;2023-02-20T14:07:44;100636.78;;;31.80;17.52
40954;BME280;26686;50.130;8.710;2023-02-20T14:12:59;100627.91;;;32.45;17.14
40954;BME280;26686;50.130;8.710;2023-02-20T14:18:00;100608.09;;;32.20;17.40
40954;BME280;26686;50.130;8.710;2023-02-20T14:28:14;100601.22;;;33.63;16.03
40954;BME280;26686;50.130;8.710;2023-02-20T14:33:23;100605.00;;;34.10;16.26
40954;BME280;26686;50.130;8.710;2023-02-20T14:38:48;100594.03;;;33.62;16.51
40954;BME280;26686;50.130;8.710;2023-02-20T14:43:59;100577.81;;;33.76;16.09
40954;BME280;26686;50.130;8.710;2023-02-20T14:49:07;100586.66;;;32.00;17.46
40954;BME280;26686;50.130;8.710;2023-02-20T14:59:32;100563.44;;;30.74;18.35
40954;BME280;26686;50.130;8.710;2023-02-20T15:04:35;100557.63;;;30.53;18.83
40954;BME280;26686;50.130;8.710;2023-02-20T15:09:43;100567.47;;;29.91;19.91
40954;BME280;26686;50.130;8.710;2023-02-20T15:14:53;100562.56;;;28.70;20.93
40954;BME280;26686;50.130;8.710;2023-02-20T15:19:56;100581.91;;;27.22;22.82
40954;BME280;26686;50.130;8.710;2023-02-20T15:30:15;100551.66;;;21.17;30.77
40954;BME280;26686;50.130;8.710;2023-02-20T15:35:24;100562.44;;;20.64;31.73
40954;BME280;26686;50.130;8.710;2023-02-20T15:40:29;100550.56;;;19.64;33.83
40954;BME280;26686;50.130;8.710;2023-02-20T15:45:31;100567.25;;;19.12;34.70
40954;BME280;26686;50.130;8.710;2023-02-20T15:50:33;100568.94;;;18.30;36.22
40954;BME280;26686;50.130;8.710;2023-02-20T15:55:34;100546.28;;;17.90;36.65
40954;BME280;26686;50.130;8.710;2023-02-20T16:00:36;100561.31;;;17.66;37.44
40954;BME280;26686;50.130;8.710;2023-02-20T16:05:37;100563.22;;;17.40;38.14
40954;BME280;26686;50.130;8.710;2023-02-20T16:10:39;100571.34;;;17.22;38.47
40954;BME280;26686;50.130;8.710;2023-02-20T16:15:40;100543.69;;;16.59;39.21
40954;BME280;26686;50.130;8.710;2023-02-20T16:20:42;100542.63;;;16.52;39.76
40954;BME280;26686;50.130;8.710;2023-02-20T16:25:43;100535.50;;;16.42;39.58
40954;BME280;26686;50.130;8.710;2023-02-20T16:30:45;100534.47;;;16.07;40.80
40954;BME280;26686;50.130;8.710;2023-02-20T16:35:48;100531.47;;;15.93;41.49
40954;BME280;26686;50.130;8.710;2023-02-20T16:40:50;100534.41;;;15.71;41.68
40954;BME280;26686;50.130;8.710;2023-02-20T16:45:55;100545.19;;;15.62;42.16
40954;BME280;26686;50.130;8.710;2023-02-20T16:50:56;100545.44;;;15.41;42.60
40954;BME280;26686;50.130;8.710;2023-02-20T16:55:58;100537.94;;;15.07;42.92
40954;BME280;26686;50.130;8.710;2023-02-20T17:00:59;100558.84;;;14.93;43.32
40954;BME280;26686;50.130;8.710;2023-02-20T17:06:01;100547.72;;;14.78;43.76
40954;BME280;26686;50.130;8.710;2023-02-20T17:11:03;100564.53;;;14.71;43.94
40954;BME280;26686;50.130;8.710;2023-02-20T17:16:04;100560.28;;;14.48;44.07
40954;BME280;26686;50.130;8.710;2023-02-20T17:21:08;100533.22;;;14.22;44.73
40954;BME280;26686;50.130;8.710;2023-02-20T17:26:09;100570.69;;;14.32;44.74
40954;BME280;26686;50.130;8.710;2023-02-20T17:31:14;100567.91;;;14.24;44.52
40954;BME280;26686;50.130;8.710;2023-02-20T17:36:16;100576.91;;;14.23;45.20
40954;BME280;26686;50.130;8.710;2023-02-20T17:41:17;100588.75;;;14.20;45.34
40954;BME280;26686;50.130;8.710;2023-02-20T17:46:20;100599.28;;;14.12;45.76
40954;BME280;26686;50.130;8.710;2023-02-20T17:51:21;100580.38;;;13.94;45.87
40954;BME280;26686;50.130;8.710;2023-02-20T17:56:22;100608.28;;;14.01;45.77
40954;BME280;26686;50.130;8.710;2023-02-20T18:01:24;100603.19;;;13.88;46.31
40954;BME280;26686;50.130;8.710;2023-02-20T18:06:27;100569.75;;;13.63;46.23
40954;BME280;26686;50.130;8.710;2023-02-20T18:11:29;100595.50;;;13.64;46.81
40954;BME280;26686;50.130;8.710;2023-02-20T18:16:30;100602.41;;;13.67;47.00
40954;BME280;26686;50.130;8.710;2023-02-20T18:21:34;100595.00;;;13.49;47.08
40954;BME280;26686;50.130;8.710;2023-02-20T18:26:37;100617.56;;;13.56;47.61
40954;BME280;26686;50.130;8.710;2023-02-20T18:31:38;100611.66;;;13.53;48.17
40954;BME280;26686;50.130;8.710;2023-02-20T18:36:40;100603.97;;;13.38;48.01
40954;BME280;26686;50.130;8.710;2023-02-20T18:41:53;100613.22;;;13.34;48.87
40954;BME280;26686;50.130;8.710;2023-02-20T18:46:55;100613.22;;;13.34;49.17
40954;BME280;26686;50.130;8.710;2023-02-20T18:51:57;100613.75;;;13.28;49.39
40954;BME280;26686;50.130;8.710;2023-02-20T18:57:01;100605.06;;;13.15;49.44
40954;BME280;26686;50.130;8.710;2023-02-20T19:02:03;100600.00;;;13.12;49.66
40954;BME280;26686;50.130;8.710;2023-02-20T19:07:06;100609.25;;;13.07;50.03
40954;BME280;26686;50.130;8.710;2023-02-20T19:12:08;100601.31;;;12.96;50.80
40954;BME280;26686;50.130;8.710;2023-02-20T19:17:10;100609.06;;;12.99;50.75
40954;BME280;26686;50.130;8.710;2023-02-20T19:22:12;100596.94;;;12.95;51.00
40954;BME280;26686;50.130;8.710;2023-02-20T19:27:14;100604.16;;;12.83;51.78
40954;BME280;26686;50.130;8.710;2023-02-20T19:32:15;100609.91;;;12.79;52.16
40954;BME280;26686;50.130;8.710;2023-02-20T19:37:18;100620.72;;;12.77;52.35
40954;BME280;26686;50.130;8.710;2023-02-20T19:42:19;100621.34;;;12.69;52.17
40954;BME280;26686;50.130;8.710;2023-02-20T19:47:21;100630.84;;;12.62;52.73
40954;BME280;26686;50.130;8.710;2023-02-20T19:52:23;100618.53;;;12.50;52.69
40954;BME280;26686;50.130;8.710;2023-02-20T19:57:24;100616.88;;;12.37;53.23
40954;BME280;26686;50.130;8.710;2023-02-20T20:02:25;100621.28;;;12.27;53.54
40954;BME280;26686;50.130;8.710;2023-02-20T20:07:27;100613.53;;;12.13;54.15
40954;BME280;26686;50.130;8.710;2023-02-20T20:12:28;100614.53;;;12.12;54.04
40954;BME280;26686;50.130;8.710;2023-02-20T20:17:54;100628.38;;;12.06;54.08
40954;BME280;26686;50.130;8.710;2023-02-20T20:22:57;100632.50;;;11.98;54.77
40954;BME280;26686;50.130;8.710;2023-02-20T20:28:01;100617.56;;;11.84;54.95
40954;BME280;26686;50.130;8.710;2023-02-20T20:33:03;100602.53;;;11.83;54.82
40954;BME280;26686;50.130;8.710;2023-02-20T20:38:05;100622.78;;;11.86;55.16
40954;BME280;26686;50.130;8.710;2023-02-20T20:43:08;100639.03;;;11.72;55.20
40954;BME280;26686;50.130;8.710;2023-02-20T20:48:10;100630.56;;;11.66;55.29
40954;BME280;26686;50.130;8.710;2023-02-20T20:53:12;100604.13;;;11.52;55.95
40954;BME280;26686;50.130;8.710;2023-02-20T20:58:13;100573.34;;;11.37;56.25
40954;BME280;26686;50.130;8.710;2023-02-20T21:03:14;100600.00;;;11.48;56.44
40954;BME280;26686;50.130;8.710;2023-02-20T21:08:16;100625.44;;;11.52;56.62
40954;BME280;26686;50.130;8.710;2023-02-20T21:13:17;100610.91;;;11.56;57.14
40954;BME280;26686;50.130;8.710;2023-02-20T21:18:19;100614.31;;;11.47;56.97
40954;BME280;26686;50.130;8.710;2023-02-20T21:23:20;100627.63;;;11.47;57.40
40954;BME280;26686;50.130;8.710;2023-02-20T21:28:22;100608.72;;;11.39;57.33
40954;BME280;26686;50.130;8.710;2023-02-20T21:33:23;100610.41;;;11.28;57.61
40954;BME280;26686;50.130;8.710;2023-02-20T21:38:24;100626.78;;;11.35;57.48
40954;BME280;26686;50.130;8.710;2023-02-20T21:43:26;100630.88;;;11.28;57.96
40954;BME280;26686;50.130;8.710;2023-02-20T21:48:46;100617.16;;;11.21;57.78
40954;BME280;26686;50.130;8.710;2023-02-20T21:53:47;100613.03;;;11.06;58.47
40954;BME280;26686;50.130;8.710;2023-02-20T21:58:49;100619.31;;;11.05;58.95
40954;BME280;26686;50.130;8.710;2023-02-20T22:04:06;100614.75;;;11.07;59.01
40954;BME280;26686;50.130;8.710;2023-02-20T22:09:07;100618.25;;;11.07;58.63
40954;BME280;26686;50.130;8.710;2023-02-20T22:14:27;100631.06;;;11.02;59.32
40954;BME280;26686;50.130;8.710;2023-02-20T22:19:48;100623.19;;;11.01;59.10
40954;BME280;26686;50.130;8.710;2023-02-20T22:25:09;100629.84;;;10.95;59.58
40954;BME280;26686;50.130;8.710;2023-02-20T22:30:29;100630.69;;;10.95;59.82
40954;BME280;26686;50.130;8.710;2023-02-20T22:35:51;100624.09;;;10.88;60.08
40954;BME280;26686;50.130;8.710;2023-02-20T22:41:17;100622.66;;;10.84;60.00
40954;BME280;26686;50.130;8.710;2023-02-20T22:46:37;100599.84;;;10.69;60.59
40954;BME280;26686;50.130;8.710;2023-02-20T22:51:58;100609.78;;;10.67;60.56
40954;BME280;26686;50.130;8.710;2023-02-20T22:57:17;100626.34;;;10.70;61.37
40954;BME280;26686;50.130;8.710;2023-02-20T23:02:37;100627.44;;;10.68;61.55
40954;BME280;26686;50.130;8.710;2023-02-20T23:07:57;100606.38;;;10.65;61.73
40954;BME280;26686;50.130;8.710;2023-02-20T23:13:17;100610.22;;;10.60;61.87
40954;BME280;26686;50.130;8.710;2023-02-20T23:18:37;100625.47;;;10.58;62.45
40954;BME280;26686;50.130;8.710;2023-02-20T23:23:57;100609.69;;;10.44;62.98
40954;BME280;26686;50.130;8.710;2023-02-20T23:29:17;100620.09;;;10.47;63.69
40954;BME280;26686;50.130;8.710;2023-02-20T23:34:37;100623.22;;;10.41;64.04
40954;BME280;26686;50.130;8.710;2023-02-20T23:39:58;100618.34;;;10.35;64.77
40954;BME280;26686;50.130;8.710;2023-02-20T23:45:30;100589.44;;;10.17;64.62
40954;BME280;26686;50.130;8.710;2023-02-20T23:50:51;100605.69;;;10.25;64.09
40954;BME280;26686;50.130;8.710;2023-02-20T23:56:11;100602.13;;;10.14;64.89
